Martha, Oklahoma
Current Conditions -  °F | °C
As of 5:15 AM on Saturday 25 Oct 2014 (Local Time) from KAXS Reporting Station
Clear Clear  
Wind Chill: 60°   Ceiling: Unl
Heat Index: 60°   Visibility: 10mi
Dew Point: 55°   Wind: 6mph
Humidity: 83%   Direction: 110°ESE
Pressure: 30.08"   Gusts: NA
Location:  34.73°N, 99.39°W
Report Text: KAXS 251015Z AUTO 11005KT 10SM CLR 16/13 A3008 RMK AO2 T01550126
Loading
Personal Weather Stations






























Interactive Weather Map
Tropical Storm Tracking
New forecast layout! Learn more

10-Day Weather Forecast

Advertisements
Track Severe Weather on mobile